KEKY

Bessemer Airport

Bessemer, Alabama, USA
METAR KEKY 221506Z AUTO 22004KT 1SM +RA BR FEW005 OVC013 21/21 A3010 RMK AO2 P0035 RVRNO
Observed Flight Rules
May-22 @ 15:06 UTC (12 minutes ago) Instrument Flight Rules
Wind Visibility Clouds Conditions
220° at 4 knots 1 miles
  • Few at 500' AGL
  • Overcast at 1,300' AGL
  • Heavy Rain
  • Mist
Temperatures Readings Precipitation
Current 21°C / 70°F
Dewpoint 21°C / 70°F
Humidity 100%
Altimeter 30.1" Hg
Pressure 1019 hPa
Elevation 213
Current Rain 0.35
METAR KEKY 221506Z AUTO 22004KT 1SM +RA BR FEW005 OVC013 21/21 A3010 RMK AO2 P0035 RVRNO
Observed Flight Rules
May-22 @ 15:06 UTC
(12 minutes ago)
IFR
Wind Visibility
220° at 4 knots 1 miles
Clouds
  • Few at 500' AGL
  • Overcast at 1,300' AGL
Conditions
  • Heavy Rain
  • Mist
Temperature Dewpoint
21°C / 70°F 21°C / 70°F
Humidity Altimeter Pressure
100% 30.1" Hg 1019 hPa
Current Rain
0.35